Norwegian Sun — C6RN3 — position and weather

sailwx.info

Track history (hours):
 
Tides and Currents Weather Stations Pressure Air Temp Water Temp Dewpoint Dewpoint Depression Visibility Wind Speed Wind Dir Waves Ship Positions

Norwegian Sun

Operator: Norwegian Cruise Line

Last reported at 2019-Jun-15 22:00 UTC. Time now 2019-Jun-15 22:44 UTC.
Position N 25°48' W 077°42'.

Type: Passenger vessel. MMSI: 311109000.

Wind from 180 at 32 knots

Barometer 1018.0 mb
Air temperature 24.0 ° C
Visibility: greater than 5.4 NM
Dewpoint 21.0 ° C
Water temperature 25.0 ° C

Date/timePositionNaut miles runAvg speedWind from/ knotsBaromVisibWave heightAir tempDewpointWater temp
2019-Jun-15 22:00N 25°48' W 077°42'188 8.2 180 / 321018.0 5.4 24.021.025.0
2019-Jun-14 23:00N 28°00' W 080°12'20 1.1 090 / 61018.010.8 26.021.527.0
2019-Jun-14 04:58N 27°43' W 079°59'8213.7
2019-Jun-13 23:00N 26°36' W 079°06'   270 / 61017.010.8 28.023.728.0
2019-Jun-11 03:52N 27°02' W 079°28'514.7
2019-Jun-11 03:30N 27°07' W 079°31'713.2
2019-Jun-11 02:57N 27°13' W 079°36'3612.2
2019-Jun-11 00:00N 27°42' W 080°00'156 6.5 210 / 71016.0 5.4 25.022.026.0
2019-Jun-10 00:00N 25°54' W 077°54'63 5.3 270 / 31016.010.8 26.023.127.0
2019-Jun-09 12:00N 25°00' W 077°18'121 8.1 130 / 101015.010.8 26.023.127.0
2019-Jun-08 20:58N 26°31' W 078°46'0 0.0
2019-Jun-08 17:58N 26°31' W 078°46'0 0.0
2019-Jun-08 16:46N 26°31' W 078°46'0 0.0
2019-Jun-08 16:28N 26°31' W 078°46'0 0.0
2019-Jun-08 15:58N 26°31' W 078°46'0 0.0
2019-Jun-08 15:28N 26°31' W 078°46'0 0.0
2019-Jun-08 11:42N 26°31' W 078°46'6 5.5
2019-Jun-08 10:35N 26°26' W 078°50'1 7.9
2019-Jun-08 10:30N 26°26' W 078°51'5 8.9
2019-Jun-08 09:55N 26°29' W 078°56'4 9.4
2019-Jun-08 09:30N 26°31' W 078°59'5 9.7
2019-Jun-08 09:00N 26°35' W 079°03'14 9.7
2019-Jun-08 07:34N 26°45' W 079°14'2 9.4
2019-Jun-08 07:20N 26°47' W 079°15'3 9.3
2019-Jun-08 07:00N 26°49' W 079°17'510.6
2019-Jun-08 06:30N 26°53' W 079°21'1215.6
2019-Jun-08 05:43N 27°03' W 079°29'615.0
2019-Jun-08 05:19N 27°09' W 079°32'713.8
2019-Jun-08 04:46N 27°15' W 079°37'413.9
2019-Jun-08 04:30N 27°18' W 079°39'  
Track history (hours):
 
Tides and Currents Weather Stations Pressure Air Temp Water Temp Dewpoint Dewpoint Depression Visibility Wind Speed Wind Dir Waves Ship Positions

Norwegian Sun

Operator: Norwegian Cruise Line

Last reported at 2019-Jun-15 22:00 UTC. Time now 2019-Jun-15 22:44 UTC.
Position N 25°48' W 077°42'.

Type: Passenger vessel. MMSI: 311109000.

Wind from 180 at 32 knots

Barometer 1018.0 mb
Air temperature 24.0 ° C
Visibility: greater than 5.4 NM
Dewpoint 21.0 ° C
Water temperature 25.0 ° C

Date/timePositionNaut miles runAvg speedWind from/ knotsBaromVisibWave heightAir tempDewpointWater temp
2019-Jun-15 22:00N 25°48' W 077°42'188 8.2 180 / 321018.0 5.4 24.021.025.0
2019-Jun-14 23:00N 28°00' W 080°12'20 1.1 090 / 61018.010.8 26.021.527.0
2019-Jun-14 04:58N 27°43' W 079°59'8213.7
2019-Jun-13 23:00N 26°36' W 079°06'   270 / 61017.010.8 28.023.728.0
2019-Jun-11 03:52N 27°02' W 079°28'514.7
2019-Jun-11 03:30N 27°07' W 079°31'713.2
2019-Jun-11 02:57N 27°13' W 079°36'3612.2
2019-Jun-11 00:00N 27°42' W 080°00'156 6.5 210 / 71016.0 5.4 25.022.026.0
2019-Jun-10 00:00N 25°54' W 077°54'63 5.3 270 / 31016.010.8 26.023.127.0
2019-Jun-09 12:00N 25°00' W 077°18'121 8.1 130 / 101015.010.8 26.023.127.0
2019-Jun-08 20:58N 26°31' W 078°46'0 0.0
2019-Jun-08 17:58N 26°31' W 078°46'0 0.0
2019-Jun-08 16:46N 26°31' W 078°46'0 0.0
2019-Jun-08 16:28N 26°31' W 078°46'0 0.0
2019-Jun-08 15:58N 26°31' W 078°46'0 0.0
2019-Jun-08 15:28N 26°31' W 078°46'0 0.0
2019-Jun-08 11:42N 26°31' W 078°46'6 5.5
2019-Jun-08 10:35N 26°26' W 078°50'1 7.9
2019-Jun-08 10:30N 26°26' W 078°51'5 8.9
2019-Jun-08 09:55N 26°29' W 078°56'4 9.4
2019-Jun-08 09:30N 26°31' W 078°59'5 9.7
2019-Jun-08 09:00N 26°35' W 079°03'14 9.7
2019-Jun-08 07:34N 26°45' W 079°14'2 9.4
2019-Jun-08 07:20N 26°47' W 079°15'3 9.3
2019-Jun-08 07:00N 26°49' W 079°17'510.6
2019-Jun-08 06:30N 26°53' W 079°21'1215.6
2019-Jun-08 05:43N 27°03' W 079°29'615.0
2019-Jun-08 05:19N 27°09' W 079°32'713.8
2019-Jun-08 04:46N 27°15' W 079°37'413.9
2019-Jun-08 04:30N 27°18' W 079°39'  

Dump ship's entire track history